createdAt,value
2023-03-06T00:02:14.098Z,25.80
2023-03-06T00:05:36.242Z,26.83
2023-03-06T00:08:58.310Z,25.95
2023-03-06T00:12:20.266Z,26.48
2023-03-06T00:15:42.780Z,26.08
2023-03-06T00:19:04.786Z,25.92
2023-03-06T00:22:26.882Z,27.02
2023-03-06T00:25:48.887Z,26.58
2023-03-06T00:29:11.083Z,27.38
2023-03-06T00:32:33.155Z,27.75
2023-03-06T00:35:56.936Z,26.88
2023-03-06T00:39:19.040Z,27.23
2023-03-06T00:42:41.536Z,28.08
2023-03-06T00:46:04.161Z,28.02
2023-03-06T00:49:26.160Z,25.08
2023-03-06T00:52:48.158Z,29.98
2023-03-06T00:56:10.479Z,26.90
2023-03-06T00:59:32.527Z,28.67
2023-03-06T01:02:54.512Z,27.65
2023-03-06T01:06:17.599Z,28.23
2023-03-06T01:09:39.634Z,29.48
2023-03-06T01:13:01.589Z,31.33
2023-03-06T01:16:24.009Z,29.48
2023-03-06T01:19:46.063Z,27.35
2023-03-06T01:23:08.997Z,29.63
2023-03-06T01:26:31.692Z,31.08
2023-03-06T01:29:53.665Z,31.23
2023-03-06T01:33:15.769Z,32.17
2023-03-06T01:36:37.872Z,30.42
2023-03-06T01:40:00.414Z,31.42
2023-03-06T01:43:27.786Z,30.48
2023-03-06T01:46:49.803Z,32.72
2023-03-06T01:50:12.813Z,31.77
2023-03-06T01:53:34.871Z,31.33
2023-03-06T01:57:05.688Z,31.65
2023-03-06T02:00:29.628Z,33.53
2023-03-06T02:03:51.892Z,30.40
2023-03-06T02:07:15.777Z,31.83
2023-03-06T02:10:37.974Z,30.88
2023-03-06T02:14:00.100Z,29.75
2023-03-06T02:17:23.474Z,29.45
2023-03-06T02:20:54.076Z,32.20
2023-03-06T02:24:42.168Z,30.80
2023-03-06T02:28:06.551Z,30.98
2023-03-06T02:31:32.094Z,32.08
2023-03-06T02:34:56.535Z,30.45
2023-03-06T02:38:21.932Z,31.67
2023-03-06T02:41:43.986Z,31.45
2023-03-06T02:45:09.920Z,33.50
2023-03-06T02:48:31.893Z,29.88
2023-03-06T02:51:53.848Z,30.60
2023-03-06T02:55:15.865Z,30.67
2023-03-06T02:58:38.123Z,30.42
2023-03-06T03:02:00.156Z,28.75
2023-03-06T03:05:22.996Z,28.77
2023-03-06T03:08:52.277Z,28.67
2023-03-06T03:12:14.792Z,29.60
2023-03-06T03:15:36.854Z,30.33
2023-03-06T03:18:58.844Z,31.17
2023-03-06T03:22:22.176Z,29.52
2023-03-06T03:25:45.322Z,30.02
2023-03-06T03:29:09.795Z,29.80
2023-03-06T03:32:31.967Z,30.00
2023-03-06T03:36:01.843Z,27.48
2023-03-06T03:39:24.163Z,30.27
2023-03-06T03:42:46.311Z,29.50
2023-03-06T03:46:08.858Z,29.67
2023-03-06T03:49:31.826Z,27.90
2023-03-06T03:52:54.997Z,29.42
2023-03-06T03:56:17.133Z,29.48
2023-03-06T03:59:47.832Z,30.13
2023-03-06T04:03:17.196Z,28.00
2023-03-06T04:06:40.995Z,26.60
2023-03-06T04:10:03.159Z,28.75
2023-03-06T04:13:26.070Z,27.90
2023-03-06T04:16:48.667Z,28.25
2023-03-06T04:20:11.362Z,27.30
2023-03-06T04:23:33.648Z,28.08
2023-03-06T04:26:55.723Z,28.35
2023-03-06T04:30:18.730Z,25.45
2023-03-06T04:33:41.122Z,28.17
2023-03-06T04:37:05.023Z,27.42
2023-03-06T04:40:29.556Z,27.58
2023-03-06T04:43:52.321Z,27.33
2023-03-06T04:47:14.390Z,27.77
2023-03-06T04:50:38.016Z,29.90
2023-03-06T04:53:59.964Z,26.20
2023-03-06T04:57:22.371Z,27.48
2023-03-06T05:00:44.483Z,27.13
2023-03-06T05:04:06.556Z,28.30
2023-03-06T05:07:28.572Z,27.70
2023-03-06T05:10:56.631Z,27.15
2023-03-06T05:14:18.738Z,27.40
2023-03-06T05:17:41.184Z,26.63
2023-03-06T05:21:04.841Z,28.10
2023-03-06T05:24:27.199Z,28.75
2023-03-06T05:27:49.379Z,32.80
2023-03-06T05:31:12.134Z,30.55
2023-03-06T05:34:35.595Z,31.73
2023-03-06T05:37:57.921Z,33.22
2023-03-06T05:41:19.993Z,34.92
2023-03-06T05:44:41.959Z,35.15
2023-03-06T05:48:04.456Z,35.05
2023-03-06T05:51:26.795Z,36.05
2023-03-06T05:54:53.783Z,34.88
2023-03-06T05:58:16.586Z,36.58
2023-03-06T06:01:38.692Z,37.78
2023-03-06T06:05:02.713Z,36.25
2023-03-06T06:08:26.210Z,38.53
2023-03-06T06:11:58.790Z,38.50
2023-03-06T06:15:20.808Z,38.15
2023-03-06T06:18:43.563Z,40.28
2023-03-06T06:22:05.609Z,38.50
2023-03-06T06:25:27.628Z,39.17
2023-03-06T06:28:49.653Z,39.50
2023-03-06T06:32:11.754Z,39.95
2023-03-06T06:35:37.278Z,40.60
2023-03-06T06:38:59.641Z,39.28
2023-03-06T06:42:31.499Z,38.55
2023-03-06T06:46:19.556Z,38.72
2023-03-06T06:49:41.359Z,40.78
2023-03-06T06:53:03.442Z,40.38
2023-03-06T06:56:25.976Z,41.53
2023-03-06T06:59:48.001Z,42.28
2023-03-06T07:03:13.064Z,41.78
2023-03-06T07:06:35.006Z,40.05
2023-03-06T07:09:57.133Z,40.10
2023-03-06T07:13:19.160Z,42.88
2023-03-06T07:16:41.303Z,39.75
2023-03-06T07:20:04.509Z,40.60
2023-03-06T07:23:27.305Z,40.03
2023-03-06T07:26:49.279Z,38.30
2023-03-06T07:30:13.539Z,40.00
2023-03-06T07:33:35.850Z,39.47
2023-03-06T07:36:57.794Z,37.88
2023-03-06T07:40:20.884Z,37.60
2023-03-06T07:43:44.268Z,36.45
2023-03-06T07:47:07.415Z,38.05
2023-03-06T07:50:29.508Z,37.80
2023-03-06T07:53:51.623Z,38.88
2023-03-06T07:57:13.771Z,38.95
2023-03-06T08:00:35.783Z,38.30
2023-03-06T08:03:57.867Z,38.13
2023-03-06T08:07:20.483Z,37.92
2023-03-06T08:10:48.054Z,37.90
2023-03-06T08:14:09.972Z,37.10
2023-03-06T08:17:31.961Z,37.38
2023-03-06T08:21:09.012Z,38.00
2023-03-06T08:24:31.077Z,37.97
2023-03-06T08:27:53.058Z,37.08
2023-03-06T08:31:36.998Z,37.65
2023-03-06T08:34:58.959Z,38.13
2023-03-06T08:38:21.004Z,38.53
2023-03-06T08:41:43.336Z,37.00
2023-03-06T08:45:06.633Z,35.78
2023-03-06T08:48:28.785Z,36.08
2023-03-06T08:51:50.735Z,37.78
2023-03-06T08:55:14.986Z,37.35
2023-03-06T08:58:37.173Z,38.90
2023-03-06T09:01:59.238Z,38.50
2023-03-06T09:05:21.332Z,37.65
2023-03-06T09:08:44.593Z,35.85
2023-03-06T09:12:06.953Z,36.33
2023-03-06T09:15:29.118Z,35.95
2023-03-06T09:18:53.132Z,35.40
2023-03-06T09:22:15.227Z,36.42
2023-03-06T09:25:37.257Z,39.95
2023-03-06T09:28:59.205Z,38.55
2023-03-06T09:32:22.586Z,35.97
2023-03-06T09:35:52.977Z,37.78
2023-03-06T09:39:14.972Z,38.05
2023-03-06T09:42:37.138Z,35.08
2023-03-06T09:45:59.731Z,36.28
2023-03-06T09:49:58.596Z,36.78
2023-03-06T09:53:47.238Z,33.75
2023-03-06T09:57:23.050Z,34.47
2023-03-06T10:01:17.215Z,33.25
2023-03-06T10:04:43.973Z,31.50
2023-03-06T10:08:18.451Z,30.73
2023-03-06T10:11:54.282Z,30.73
2023-03-06T10:15:34.678Z,33.72
2023-03-06T10:19:02.293Z,30.48
2023-03-06T10:22:52.604Z,31.70
2023-03-06T10:26:32.620Z,28.15
2023-03-06T10:30:22.521Z,29.60
2023-03-06T10:34:21.967Z,29.10
2023-03-06T10:37:43.922Z,29.33
2023-03-06T10:41:11.880Z,31.15
2023-03-06T10:44:33.821Z,29.48
2023-03-06T10:48:12.017Z,27.85
2023-03-06T10:51:36.687Z,28.08
2023-03-06T10:55:23.212Z,27.85
2023-03-06T10:58:45.188Z,24.88
2023-03-06T11:02:42.234Z,28.48
2023-03-06T11:06:09.510Z,26.95
2023-03-06T11:09:33.656Z,23.38
2023-03-06T11:13:07.660Z,22.42
2023-03-06T11:16:30.714Z,24.27
2023-03-06T11:20:49.907Z,24.02
2023-03-06T11:24:19.780Z,24.42
2023-03-06T11:27:45.520Z,23.50
2023-03-06T11:31:10.880Z,23.63
2023-03-06T11:34:54.921Z,23.30
2023-03-06T11:38:40.383Z,23.08
2023-03-06T11:42:11.996Z,23.17
2023-03-06T11:45:45.273Z,20.85
2023-03-06T11:49:29.100Z,23.67
2023-03-06T11:53:26.484Z,23.70
2023-03-06T11:57:02.364Z,24.80
2023-03-06T12:00:50.290Z,23.77
2023-03-06T12:04:24.282Z,21.00
2023-03-06T12:08:01.584Z,22.38
2023-03-06T12:11:32.803Z,23.17
2023-03-06T12:14:58.354Z,22.45
2023-03-06T12:18:35.457Z,21.85
2023-03-06T12:22:09.299Z,20.20
2023-03-06T12:25:39.759Z,22.15
2023-03-06T12:29:12.334Z,20.88
2023-03-06T12:32:55.040Z,20.35
2023-03-06T12:36:50.955Z,20.00
2023-03-06T12:40:28.201Z,20.25
2023-03-06T12:44:15.195Z,20.67
2023-03-06T12:47:43.447Z,19.73
2023-03-06T12:51:07.515Z,18.17
2023-03-06T12:54:31.416Z,16.98
2023-03-06T12:57:54.018Z,19.13
2023-03-06T13:01:55.195Z,18.20
2023-03-06T13:06:05.365Z,18.70
2023-03-06T13:09:30.439Z,17.40
2023-03-06T13:13:33.678Z,18.38
2023-03-06T13:17:15.631Z,17.80
2023-03-06T13:20:45.076Z,17.77
2023-03-06T13:24:17.864Z,18.97
2023-03-06T13:27:54.735Z,17.42
2023-03-06T13:31:33.692Z,16.80
2023-03-06T13:34:55.975Z,17.17
2023-03-06T13:38:31.484Z,17.13
2023-03-06T13:41:58.906Z,17.85
2023-03-06T13:45:50.616Z,17.10
2023-03-06T13:49:24.191Z,15.70
2023-03-06T13:53:08.105Z,17.95
2023-03-06T13:56:55.924Z,16.90
2023-03-06T14:00:51.674Z,18.08
2023-03-06T14:04:32.842Z,17.23
2023-03-06T14:08:10.960Z,17.98
2023-03-06T14:11:35.278Z,16.90
2023-03-06T14:15:01.941Z,17.85
2023-03-06T14:18:38.699Z,16.58
2023-03-06T14:22:04.200Z,16.48
2023-03-06T14:25:31.703Z,16.98
2023-03-06T14:29:01.123Z,18.20
2023-03-06T14:32:23.476Z,18.38
2023-03-06T14:35:52.256Z,17.83
2023-03-06T14:39:34.674Z,19.60
2023-03-06T14:43:17.741Z,17.98
2023-03-06T14:46:39.930Z,18.23
2023-03-06T14:50:32.607Z,17.83
2023-03-06T14:54:00.699Z,17.38
2023-03-06T14:57:23.779Z,18.20
2023-03-06T15:00:50.037Z,16.48
2023-03-06T15:04:19.593Z,13.98
2023-03-06T15:07:42.908Z,14.33
2023-03-06T15:11:06.963Z,13.63
2023-03-06T15:14:47.837Z,14.15
2023-03-06T15:18:55.438Z,15.13
2023-03-06T15:22:31.116Z,12.77
2023-03-06T15:25:59.944Z,12.65
2023-03-06T15:29:23.865Z,12.48
2023-03-06T15:32:45.854Z,12.48
2023-03-06T15:36:20.587Z,12.45
2023-03-06T15:39:43.318Z,12.13
2023-03-06T15:43:10.879Z,12.07
2023-03-06T15:46:33.292Z,12.02
2023-03-06T15:49:55.520Z,11.75
2023-03-06T15:53:17.529Z,12.00
2023-03-06T15:56:41.802Z,12.38
2023-03-06T16:00:04.970Z,12.18
2023-03-06T16:03:34.020Z,11.65
2023-03-06T16:06:59.672Z,12.15
2023-03-06T16:10:27.586Z,10.80
2023-03-06T16:13:49.811Z,12.02
2023-03-06T16:17:12.325Z,12.45
2023-03-06T16:20:34.384Z,12.93
2023-03-06T16:23:56.333Z,12.23
2023-03-06T16:27:19.851Z,12.07
2023-03-06T16:30:44.005Z,12.77
2023-03-06T16:34:05.987Z,11.15
2023-03-06T16:37:27.960Z,13.40
2023-03-06T16:40:49.948Z,14.70
2023-03-06T16:44:12.600Z,12.02
2023-03-06T16:47:34.779Z,12.80
2023-03-06T16:50:56.764Z,13.43
2023-03-06T16:54:19.419Z,14.80
2023-03-06T16:57:41.463Z,16.95
2023-03-06T17:01:04.084Z,12.88
2023-03-06T17:04:26.131Z,14.75
2023-03-06T17:07:50.296Z,15.45
2023-03-06T17:11:12.976Z,12.98
2023-03-06T17:14:35.031Z,15.88
2023-03-06T17:17:57.890Z,14.60
2023-03-06T17:21:19.961Z,12.98
2023-03-06T17:24:42.488Z,14.45
2023-03-06T17:28:04.518Z,13.68
2023-03-06T17:31:27.725Z,14.05
2023-03-06T17:34:49.753Z,13.85
2023-03-06T17:38:11.712Z,13.95
2023-03-06T17:41:34.330Z,15.95
2023-03-06T17:44:57.400Z,15.93
2023-03-06T17:48:19.336Z,15.40
2023-03-06T17:51:41.334Z,13.43
2023-03-06T17:55:03.735Z,14.52
2023-03-06T17:58:26.661Z,16.00
2023-03-06T18:01:48.847Z,16.42
2023-03-06T18:05:12.207Z,16.60
2023-03-06T18:08:35.221Z,16.25
2023-03-06T18:11:57.270Z,17.80
2023-03-06T18:15:19.822Z,16.90
2023-03-06T18:18:42.692Z,16.58
2023-03-06T18:22:05.496Z,17.60
2023-03-06T18:25:30.857Z,16.83
2023-03-06T18:28:56.825Z,20.35
2023-03-06T18:32:19.480Z,19.25
2023-03-06T18:35:44.291Z,19.58
2023-03-06T18:39:09.055Z,18.25
2023-03-06T18:42:31.721Z,18.45
2023-03-06T18:45:58.184Z,19.20
2023-03-06T18:49:23.839Z,17.13
2023-03-06T18:52:46.366Z,21.05
2023-03-06T18:56:11.139Z,25.75
2023-03-06T18:59:33.677Z,23.77
2023-03-06T19:02:56.341Z,22.80
2023-03-06T19:06:19.126Z,22.05
2023-03-06T19:09:42.768Z,25.45
2023-03-06T19:13:05.709Z,23.45
2023-03-06T19:16:29.859Z,21.23
2023-03-06T19:19:52.454Z,24.00
2023-03-06T19:23:15.690Z,20.83
2023-03-06T19:26:38.433Z,20.45
2023-03-06T19:30:01.307Z,20.65
2023-03-06T19:33:24.292Z,22.33
2023-03-06T19:36:46.696Z,25.45
2023-03-06T19:40:09.804Z,22.30
2023-03-06T19:43:31.845Z,22.38
2023-03-06T19:46:53.757Z,22.90
2023-03-06T19:50:16.120Z,22.20
2023-03-06T19:53:41.347Z,24.20
2023-03-06T19:57:03.974Z,19.52
2023-03-06T20:00:26.942Z,20.58
2023-03-06T20:03:50.696Z,18.50
2023-03-06T20:07:13.220Z,21.60
2023-03-06T20:10:37.208Z,22.08
2023-03-06T20:14:01.619Z,18.08
2023-03-06T20:17:23.591Z,19.13
2023-03-06T20:20:45.932Z,20.77
2023-03-06T20:24:09.953Z,21.40
2023-03-06T20:27:32.061Z,20.85
2023-03-06T20:30:54.111Z,21.67
2023-03-06T20:34:16.186Z,22.27
2023-03-06T20:37:38.393Z,25.42
2023-03-06T20:41:00.558Z,23.38
2023-03-06T20:44:23.219Z,21.60
2023-03-06T20:47:47.200Z,19.45
2023-03-06T20:51:19.963Z,20.25
2023-03-06T20:54:42.733Z,19.30
2023-03-06T20:58:05.785Z,19.58
2023-03-06T21:01:30.231Z,22.08
2023-03-06T21:04:53.215Z,20.98
2023-03-06T21:08:16.510Z,21.25
2023-03-06T21:11:38.481Z,22.80
2023-03-06T21:15:00.460Z,22.05
2023-03-06T21:18:22.489Z,21.73
2023-03-06T21:21:44.442Z,22.80
2023-03-06T21:25:06.543Z,21.65
2023-03-06T21:28:29.375Z,20.58
2023-03-06T21:31:51.386Z,20.63
2023-03-06T21:35:14.045Z,22.90
2023-03-06T21:38:36.547Z,21.10
2023-03-06T21:41:58.517Z,22.30
2023-03-06T21:45:20.470Z,23.48
2023-03-06T21:48:42.447Z,24.55
2023-03-06T21:52:04.626Z,25.85
2023-03-06T21:55:26.686Z,28.42
2023-03-06T21:58:48.901Z,26.63
2023-03-06T22:02:11.475Z,26.55
2023-03-06T22:05:33.542Z,27.70
2023-03-06T22:08:57.046Z,28.75
2023-03-06T22:12:19.014Z,28.63
2023-03-06T22:15:48.837Z,27.60
2023-03-06T22:19:10.874Z,26.55
2023-03-06T22:22:32.933Z,27.33
2023-03-06T22:25:54.939Z,26.95
2023-03-06T22:29:16.911Z,26.52
2023-03-06T22:32:38.895Z,24.27
2023-03-06T22:36:07.606Z,28.02
2023-03-06T22:39:29.553Z,26.08
2023-03-06T22:42:51.644Z,28.40
2023-03-06T22:46:16.281Z,28.65
2023-03-06T22:49:38.468Z,27.73
2023-03-06T22:53:00.450Z,28.95
2023-03-06T22:56:22.978Z,28.70
2023-03-06T22:59:45.056Z,29.30
2023-03-06T23:03:07.000Z,28.77
2023-03-06T23:06:31.739Z,27.45
2023-03-06T23:09:53.868Z,26.08
2023-03-06T23:17:14.969Z,27.00
2023-03-06T23:24:36.818Z,25.55
2023-03-06T23:27:58.787Z,25.75
2023-03-06T23:31:24.166Z,26.60
2023-03-06T23:34:48.602Z,26.35
2023-03-06T23:38:11.064Z,26.77
2023-03-06T23:41:33.332Z,25.80
2023-03-06T23:44:55.420Z,26.70
2023-03-06T23:48:17.835Z,24.80
2023-03-06T23:51:39.832Z,27.85
2023-03-06T23:55:01.875Z,24.73
2023-03-06T23:58:23.811Z,26.75
